Time;durP1;ratioP1;P1;durP2;ratioP2;P2;SDS_P1;SDS_P2;PMS_P1;PMS_P2;Temp;Humidity;BMP_temperature;BMP_pressure;BME280_temperature;BME280_humidity;BME280_pressure;Samples;Min_cycle;Max_cycle;Signal;HPM_P1;HPM_P2
2023/01/14 00:01:07;;;;;;;31.83;6.50;;;;;;;10.97;73.54;99446.56;5053167;28;20179;-90
2023/01/14 00:03:32;;;;;;;22.93;7.20;;;;;;;10.95;73.54;99437.94;5052441;28;20174;-89
2023/01/14 00:05:59;;;;;;;24.73;6.23;;;;;;;10.94;73.83;99436.22;5052548;28;20170;-90
2023/01/14 00:08:26;;;;;;;26.63;6.67;;;;;;;10.98;73.56;99441.25;5052172;28;20189;-90
2023/01/14 00:10:52;;;;;;;33.10;8.00;;;;;;;11.05;73.76;99439.19;5053444;28;20209;-90
2023/01/14 00:13:18;;;;;;;29.90;7.30;;;;;;;11.06;73.49;99444.34;5052545;28;20649;-90
2023/01/14 00:15:55;;;;;;;41.93;8.30;;;;;;;11.06;73.19;99443.50;5053403;28;20201;-89
2023/01/14 00:18:21;;;;;;;25.23;7.47;;;;;;;11.04;73.27;99447.97;5053223;28;20608;-89
2023/01/14 00:21:15;;;;;;;40.43;8.53;;;;;;;11.02;73.62;99453.31;5051896;28;20540;-90
2023/01/14 00:23:41;;;;;;;45.37;8.37;;;;;;;11.05;73.41;99455.78;5052021;28;20179;-91
2023/01/14 00:26:12;;;;;;;34.33;9.30;;;;;;;11.04;73.77;99455.84;5052411;28;20186;-89
2023/01/14 00:28:37;;;;;;;46.80;9.87;;;;;;;11.03;73.66;99451.53;5053370;28;20205;-90
2023/01/14 00:31:11;;;;;;;34.93;8.50;;;;;;;11.02;73.85;99448.06;5052920;28;20711;-90
2023/01/14 00:33:38;;;;;;;45.27;8.97;;;;;;;11.04;73.61;99454.06;5053768;28;20542;-90
2023/01/14 00:36:06;;;;;;;34.53;8.27;;;;;;;11.04;73.76;99445.34;5052060;28;20301;-90
2023/01/14 00:38:32;;;;;;;39.13;7.77;;;;;;;11.03;74.03;99456.78;5052828;28;20708;-90
2023/01/14 00:41:22;;;;;;;30.17;6.40;;;;;;;10.94;73.57;99455.44;5052718;28;20198;-90
2023/01/14 00:43:53;;;;;;;27.53;7.53;;;;;;;10.81;74.54;99453.50;5052101;28;20204;-90
2023/01/14 00:46:21;;;;;;;21.27;5.60;;;;;;;10.72;74.69;99454.78;5052068;28;20219;-90
2023/01/14 00:48:47;;;;;;;23.17;5.53;;;;;;;10.82;74.83;99461.28;5051796;28;20639;-90
2023/01/14 00:51:13;;;;;;;23.27;5.33;;;;;;;10.92;74.00;99453.81;5056449;28;20187;-90
2023/01/14 00:53:40;;;;;;;20.03;5.20;;;;;;;10.90;73.96;99455.69;5056604;28;20175;-90
2023/01/14 00:56:06;;;;;;;27.07;6.33;;;;;;;10.90;74.13;99446.00;5055341;28;20291;-90
2023/01/14 00:58:32;;;;;;;24.27;5.77;;;;;;;10.83;74.25;99455.13;5056236;28;20187;-90
2023/01/14 01:00:58;;;;;;;16.17;4.20;;;;;;;10.89;73.95;99452.22;5055400;28;20317;-90
2023/01/14 01:03:24;;;;;;;21.40;5.57;;;;;;;10.89;74.35;99444.34;5056825;28;20261;-90
2023/01/14 01:05:50;;;;;;;16.43;6.07;;;;;;;11.01;73.20;99430.59;5056080;28;20648;-90
2023/01/14 01:08:18;;;;;;;11.57;4.60;;;;;;;10.91;73.46;99429.38;5056076;28;20174;-90
2023/01/14 01:10:49;;;;;;;17.10;5.10;;;;;;;10.83;73.70;99430.66;5055076;28;20534;-90
2023/01/14 01:13:15;;;;;;;11.83;3.40;;;;;;;10.79;73.84;99431.75;5056335;28;20196;-90
2023/01/14 01:15:41;;;;;;;15.73;4.27;;;;;;;10.76;74.01;99435.38;5056167;28;20225;-89
2023/01/14 01:18:08;;;;;;;13.37;4.43;;;;;;;10.80;73.87;99438.66;5056201;28;20177;-90
2023/01/14 01:20:34;;;;;;;10.53;4.23;;;;;;;10.78;74.27;99441.38;5054963;28;20183;-90
2023/01/14 01:23:00;;;;;;;15.13;4.20;;;;;;;10.83;74.45;99447.25;5056004;28;20188;-90
2023/01/14 01:25:26;;;;;;;12.80;4.73;;;;;;;10.85;74.46;99441.91;5055086;28;20181;-90
2023/01/14 01:27:53;;;;;;;13.23;4.10;;;;;;;10.97;73.96;99443.97;5056107;28;20177;-90
2023/01/14 01:30:19;;;;;;;12.27;4.97;;;;;;;10.94;73.92;99444.97;5055778;28;20261;-90
2023/01/14 01:32:44;;;;;;;11.50;4.30;;;;;;;10.92;73.93;99441.56;5054695;28;20244;-90
2023/01/14 01:35:10;;;;;;;12.33;4.50;;;;;;;10.99;73.59;99435.09;5055434;28;20198;-90
2023/01/14 01:37:35;;;;;;;13.03;4.20;;;;;;;10.96;73.96;99434.38;5055826;28;20206;-90
2023/01/14 01:40:01;;;;;;;8.70;4.13;;;;;;;11.01;73.53;99437.63;5055464;28;20527;-90
2023/01/14 01:42:33;;;;;;;9.00;3.50;;;;;;;10.92;73.78;99435.47;5055712;28;20184;-90
2023/01/14 01:45:25;;;;;;;8.77;3.93;;;;;;;10.95;73.97;99435.31;5054981;28;20173;-90
2023/01/14 01:47:56;;;;;;;10.87;4.63;;;;;;;10.96;73.83;99424.75;5051378;28;20194;-90
2023/01/14 01:50:22;;;;;;;8.73;4.00;;;;;;;10.98;73.75;99435.16;5055669;28;20169;-90
2023/01/14 01:52:47;;;;;;;8.63;3.43;;;;;;;10.83;73.92;99433.28;5055840;28;20208;-90
2023/01/14 01:55:14;;;;;;;8.20;3.27;;;;;;;10.88;73.94;99429.50;5055395;28;20198;-90
2023/01/14 01:57:40;;;;;;;8.70;3.23;;;;;;;10.90;73.72;99429.47;5056044;28;20214;-89
2023/01/14 02:00:08;;;;;;;7.40;3.13;;;;;;;10.85;74.00;99421.78;5053789;28;20182;-90
2023/01/14 02:02:34;;;;;;;7.53;3.63;;;;;;;10.87;74.30;99421.75;5055138;28;20182;-91
2023/01/14 02:05:01;;;;;;;10.03;2.97;;;;;;;10.88;73.75;99416.41;5054106;28;20175;-90
2023/01/14 02:07:27;;;;;;;11.50;3.27;;;;;;;10.90;73.67;99418.97;5055318;28;20174;-90
2023/01/14 02:09:57;;;;;;;6.23;3.70;;;;;;;10.94;73.67;99410.00;5054034;28;20611;-90
2023/01/14 02:12:36;;;;;;;10.27;3.37;;;;;;;10.93;73.72;99410.91;5055432;28;20158;-90
2023/01/14 02:15:21;;;;;;;9.53;3.30;;;;;;;10.94;73.71;99410.00;5054990;28;20184;-90
2023/01/14 02:18:07;;;;;;;9.83;2.97;;;;;;;10.96;73.70;99405.53;5053968;28;20253;-90
2023/01/14 02:21:04;;;;;;;8.50;3.40;;;;;;;10.93;74.09;99414.41;5055169;28;20172;-90
2023/01/14 02:24:11;;;;;;;8.80;3.53;;;;;;;10.95;73.88;99409.91;5053821;28;20320;-89
2023/01/14 02:26:51;;;;;;;9.00;2.80;;;;;;;10.90;73.46;99400.63;5046935;28;20202;-89
2023/01/14 02:29:26;;;;;;;5.50;2.60;;;;;;;10.87;73.47;99400.75;5053933;28;20615;-90
2023/01/14 02:32:10;;;;;;;7.33;2.50;;;;;;;10.93;72.97;99405.69;5054843;28;20167;-90
2023/01/14 02:34:54;;;;;;;5.87;2.83;;;;;;;10.92;73.07;99401.38;5054334;28;20193;-89
2023/01/14 02:37:26;;;;;;;9.57;3.00;;;;;;;10.94;73.16;99396.91;5054253;28;20266;-89
2023/01/14 02:40:01;;;;;;;6.60;2.20;;;;;;;10.99;72.74;99394.88;5054866;28;20175;-90
2023/01/14 02:45:44;;;;;;;10.37;2.43;;;;;;;10.93;72.65;99395.19;5055051;28;20646;-89
2023/01/14 02:48:12;;;;;;;6.37;3.00;;;;;;;10.92;73.02;99390.88;5054790;28;20171;-90
2023/01/14 02:50:37;;;;;;;10.97;2.90;;;;;;;10.95;72.62;99395.97;5054621;28;20239;-90
2023/01/14 02:53:11;;;;;;;7.23;3.17;;;;;;;10.98;72.58;99393.19;5053190;28;20179;-90
2023/01/14 02:55:38;;;;;;;9.73;3.20;;;;;;;11.00;72.06;99393.97;5053887;28;20193;-89
2023/01/14 02:58:33;;;;;;;8.57;2.87;;;;;;;10.94;72.28;99389.88;5052922;28;20609;-90
2023/01/14 03:01:29;;;;;;;9.73;2.57;;;;;;;10.90;72.59;99384.88;5054270;28;20524;-90
2023/01/14 03:04:38;;;;;;;7.27;3.60;;;;;;;10.88;72.63;99384.94;5054575;28;20156;-89
2023/01/14 03:07:30;;;;;;;4.87;2.20;;;;;;;10.90;72.77;99377.00;5052864;28;20608;-90
2023/01/14 03:10:21;;;;;;;5.53;2.80;;;;;;;10.88;72.43;99374.44;5054058;28;20162;-90
2023/01/14 03:13:14;;;;;;;5.40;2.00;;;;;;;10.85;72.16;99369.34;5053260;28;20516;-90
2023/01/14 03:15:46;;;;;;;6.17;2.33;;;;;;;10.86;71.84;99364.97;5052636;28;20206;-90
2023/01/14 03:18:31;;;;;;;5.83;2.40;;;;;;;10.81;71.83;99373.06;5053667;28;20173;-90
2023/01/14 03:21:04;;;;;;;5.47;2.20;;;;;;;10.78;71.75;99372.34;5053796;28;20637;-90
2023/01/14 03:23:34;;;;;;;5.77;2.40;;;;;;;10.80;71.81;99376.59;5052863;28;20276;-89
2023/01/14 03:26:02;;;;;;;7.37;2.33;;;;;;;10.84;71.34;99372.06;5053714;28;20524;-90
2023/01/14 03:28:34;;;;;;;9.43;2.40;;;;;;;10.78;71.66;99372.34;5053460;28;20181;-89
2023/01/14 03:31:09;;;;;;;7.93;3.10;;;;;;;10.80;71.44;99371.34;5053761;28;20166;-89
2023/01/14 03:33:45;;;;;;;5.57;2.87;;;;;;;10.77;71.11;99370.69;5052466;28;20169;-89
2023/01/14 03:36:12;;;;;;;6.20;2.83;;;;;;;10.72;71.13;99365.63;5053476;28;20204;-89
2023/01/14 03:39:04;;;;;;;6.80;3.67;;;;;;;10.70;71.04;99364.03;5052561;28;20261;-89
2023/01/14 03:44:24;;;;;;;10.13;3.20;;;;;;;10.60;72.46;99370.63;5054140;28;20268;-90
2023/01/14 03:46:50;;;;;;;10.33;3.83;;;;;;;10.58;72.39;99381.22;5053265;28;20226;-90
2023/01/14 03:49:16;;;;;;;9.40;3.97;;;;;;;10.47;72.71;99383.50;5053468;28;20179;-89
2023/01/14 03:51:49;;;;;;;11.93;4.53;;;;;;;10.41;73.24;99379.41;5052340;28;20196;-90
2023/01/14 03:54:22;;;;;;;8.00;3.83;;;;;;;10.44;73.59;99388.88;5052186;28;20547;-90
2023/01/14 03:56:56;;;;;;;9.37;4.03;;;;;;;10.48;73.55;99395.69;5053483;28;20165;-90
2023/01/14 03:59:34;;;;;;;7.93;4.03;;;;;;;10.51;73.82;99389.44;5053097;28;20169;-90
2023/01/14 04:02:03;;;;;;;7.70;3.77;;;;;;;10.52;73.70;99399.84;5053290;28;20204;-90
2023/01/14 04:04:30;;;;;;;6.43;3.30;;;;;;;10.49;73.62;99403.47;5053143;28;20161;-89
2023/01/14 04:06:56;;;;;;;6.80;3.23;;;;;;;10.45;73.79;99399.28;5053036;28;20668;-90
2023/01/14 04:09:21;;;;;;;7.17;4.27;;;;;;;10.44;73.90;99396.75;5053336;28;20205;-90
2023/01/14 04:11:47;;;;;;;7.30;3.93;;;;;;;10.53;73.93;99398.06;5052041;28;20655;-89
2023/01/14 04:16:56;;;;;;;8.87;3.40;;;;;;;10.54;73.33;99389.28;5053241;28;20173;-90
2023/01/14 04:19:22;;;;;;;8.60;4.30;;;;;;;10.52;73.57;99393.75;5053359;28;20175;-90
2023/01/14 04:21:47;;;;;;;7.17;3.67;;;;;;;10.48;73.61;99383.41;5052382;28;20182;-90
2023/01/14 04:24:13;;;;;;;8.37;3.37;;;;;;;10.39;73.60;99390.88;5055222;28;20603;-90
2023/01/14 04:26:38;;;;;;;8.10;3.40;;;;;;;10.41;74.09;99389.03;5057808;28;20257;-90
2023/01/14 04:29:03;;;;;;;5.80;3.13;;;;;;;10.49;74.02;99392.13;5055881;28;20202;-91
2023/01/14 04:31:29;;;;;;;7.77;3.93;;;;;;;10.54;73.93;99384.88;5056790;28;20181;-90
2023/01/14 04:33:54;;;;;;;7.40;4.27;;;;;;;10.52;73.97;99383.25;5055803;28;20531;-90
2023/01/14 04:36:20;;;;;;;9.77;3.90;;;;;;;10.53;73.63;99387.59;5056928;28;20312;-90
2023/01/14 04:38:45;;;;;;;7.23;3.40;;;;;;;10.52;73.97;99397.22;5055749;28;20236;-90
2023/01/14 04:42:26;;;;;;;10.00;3.80;;;;;;;10.55;73.78;99396.22;5057507;28;20235;-90
2023/01/14 04:43:57;;;;;;;10.00;4.17;;;;;;;10.59;73.81;99398.63;5056484;28;20530;-90
2023/01/14 04:46:22;;;;;;;7.13;3.63;;;;;;;10.59;73.64;99393.38;5056702;28;20224;-90
2023/01/14 04:48:48;;;;;;;7.33;3.63;;;;;;;10.63;73.50;99400.19;5057054;28;20176;-89
2023/01/14 04:51:13;;;;;;;8.83;4.23;;;;;;;10.66;73.86;99399.19;5056277;28;20185;-89
2023/01/14 04:53:39;;;;;;;8.33;3.67;;;;;;;10.68;73.39;99407.81;5056355;28;20636;-90
2023/01/14 04:56:04;;;;;;;8.13;3.10;;;;;;;10.67;73.35;99406.09;5055330;28;20198;-90
2023/01/14 04:58:30;;;;;;;10.67;3.97;;;;;;;10.67;73.46;99404.34;5055595;28;20182;-90
2023/01/14 05:00:55;;;;;;;10.57;5.23;;;;;;;10.75;73.30;99409.22;5055658;28;20175;-89
2023/01/14 05:03:21;;;;;;;10.83;4.20;;;;;;;10.77;72.90;99391.66;5055230;28;20187;-90
2023/01/14 05:05:46;;;;;;;9.23;4.33;;;;;;;10.82;72.51;99405.38;5055159;28;20644;-90
2023/01/14 05:08:12;;;;;;;8.17;4.03;;;;;;;10.82;72.41;99400.13;5056345;28;20201;-90
2023/01/14 05:10:39;;;;;;;8.13;4.20;;;;;;;10.82;72.24;99397.50;5055063;28;20235;-90
2023/01/14 05:13:07;;;;;;;6.63;3.43;;;;;;;10.78;72.25;99401.19;5056342;28;20174;-89
2023/01/14 05:15:36;;;;;;;9.97;4.20;;;;;;;10.75;72.29;99409.22;5054895;28;20224;-90
2023/01/14 05:18:03;;;;;;;11.00;4.23;;;;;;;10.75;72.28;99403.97;5055820;28;20170;-90
2023/01/14 05:20:28;;;;;;;7.53;3.90;;;;;;;10.71;72.38;99415.53;5056353;28;20181;-90
2023/01/14 05:23:03;;;;;;;8.93;4.83;;;;;;;10.68;72.48;99415.69;5056146;28;20645;-90
2023/01/14 05:25:31;;;;;;;9.53;4.87;;;;;;;10.65;72.87;99419.31;5054993;28;20178;-90
2023/01/14 05:28:01;;;;;;;7.47;4.27;;;;;;;10.69;72.35;99420.84;5055841;28;20237;-90
2023/01/14 05:30:27;;;;;;;12.23;4.63;;;;;;;10.68;73.02;99418.31;5054986;28;20200;-90
2023/01/14 05:32:52;;;;;;;8.53;4.83;;;;;;;10.73;72.69;99424.16;5054784;28;20197;-90
2023/01/14 05:35:18;;;;;;;11.53;4.80;;;;;;;10.72;72.81;99425.09;5053805;28;20614;-90
2023/01/14 05:37:44;;;;;;;12.33;4.87;;;;;;;10.72;72.77;99423.31;5055450;28;20237;-90
2023/01/14 05:40:10;;;;;;;12.47;4.00;;;;;;;10.72;73.31;99425.09;5055847;28;20166;-90
2023/01/14 05:45:37;;;;;;;8.87;4.50;;;;;;;10.70;73.31;99419.94;5056194;28;20193;-90
2023/01/14 05:48:04;;;;;;;7.70;3.60;;;;;;;10.66;73.40;99422.78;5056128;28;20197;-90
2023/01/14 05:50:29;;;;;;;10.03;3.87;;;;;;;10.61;73.67;99422.16;5055895;28;20177;-90
2023/01/14 05:52:55;;;;;;;15.37;4.67;;;;;;;10.57;73.43;99425.81;5054738;28;20630;-90
2023/01/14 05:55:20;;;;;;;11.53;4.67;;;;;;;10.59;73.20;99423.97;5054258;28;20220;-91
2023/01/14 05:57:46;;;;;;;9.80;4.57;;;;;;;10.63;73.51;99429.03;5054261;28;20188;-91
2023/01/14 06:06:20;;;;;;;8.57;4.50;;;;;;;10.70;73.40;99432.19;5054250;28;20631;-90
2023/01/14 06:08:06;;;;;;;15.90;6.90;;;;;;;10.56;73.42;99424.16;5055657;28;20175;-90
2023/01/14 06:10:36;;;;;;;16.03;6.77;;;;;;;10.59;73.47;99434.47;5054873;28;20215;-90
2023/01/14 06:13:10;;;;;;;17.97;9.97;;;;;;;10.61;73.36;99437.88;5054826;28;20236;-90
2023/01/14 06:15:39;;;;;;;16.97;8.33;;;;;;;10.62;73.26;99429.06;5053924;28;20204;-90
2023/01/14 06:18:14;;;;;;;16.60;6.53;;;;;;;10.66;73.63;99431.50;5054753;28;20650;-90
2023/01/14 06:20:42;;;;;;;12.80;6.30;;;;;;;10.72;73.09;99427.69;5054529;28;20547;-90
2023/01/14 06:23:08;;;;;;;16.63;7.20;;;;;;;10.66;72.97;99430.63;5054781;28;20228;-90
2023/01/14 06:25:34;;;;;;;18.43;8.27;;;;;;;10.66;73.33;99428.88;5054873;28;20249;-90
2023/01/14 06:28:00;;;;;;;16.47;7.70;;;;;;;10.70;73.10;99430.41;5054583;28;20177;-90
2023/01/14 06:30:26;;;;;;;18.23;7.60;;;;;;;10.64;73.09;99427.25;5053615;28;20620;-90
2023/01/14 06:32:53;;;;;;;24.73;8.50;;;;;;;10.73;72.65;99429.41;5054834;28;20673;-90
2023/01/14 06:35:19;;;;;;;17.27;6.67;;;;;;;10.72;72.33;99425.09;5053409;28;20203;-90
2023/01/14 06:37:45;;;;;;;17.17;8.10;;;;;;;10.75;72.16;99430.19;5054309;28;20695;-91
2023/01/14 06:40:12;;;;;;;18.80;7.67;;;;;;;10.73;72.16;99429.41;5053500;28;20187;-90
2023/01/14 06:42:38;;;;;;;16.03;6.97;;;;;;;10.78;72.16;99419.53;5054625;28;20253;-90
2023/01/14 06:45:04;;;;;;;24.47;8.67;;;;;;;10.76;71.68;99424.88;5053346;28;20636;-90
2023/01/14 06:47:29;;;;;;;25.87;9.60;;;;;;;10.73;71.41;99418.94;5054176;28;20281;-90
2023/01/14 06:49:54;;;;;;;21.97;8.73;;;;;;;10.57;71.25;99420.59;5054529;28;20189;-89
2023/01/14 06:52:21;;;;;;;23.97;9.27;;;;;;;10.56;70.98;99418.91;5053306;28;20749;-91
2023/01/14 06:54:47;;;;;;;28.33;9.87;;;;;;;10.52;72.02;99420.81;5053602;28;20224;-90
2023/01/14 06:57:13;;;;;;;23.07;8.57;;;;;;;10.54;72.27;99429.44;5053670;28;20182;-90
2023/01/14 06:59:38;;;;;;;25.17;9.07;;;;;;;10.54;72.71;99431.22;5054292;28;20189;-90
2023/01/14 07:02:04;;;;;;;40.10;11.40;;;;;;;10.54;72.24;99425.97;5053136;28;20181;-90
2023/01/14 07:04:30;;;;;;;38.70;11.43;;;;;;;10.47;72.97;99428.91;5053094;28;20189;-90
2023/01/14 07:06:55;;;;;;;35.37;10.33;;;;;;;10.52;72.97;99425.19;5053062;28;20536;-90
2023/01/14 07:09:21;;;;;;;42.23;12.20;;;;;;;10.54;72.08;99415.47;5052875;28;20192;-90
2023/01/14 07:11:46;;;;;;;56.03;15.03;;;;;;;10.30;73.05;99418.34;5053215;28;20211;-90
2023/01/14 07:14:12;;;;;;;46.50;12.47;;;;;;;10.31;73.46;99420.06;5054292;28;20177;-90
2023/01/14 07:16:37;;;;;;;59.40;13.40;;;;;;;10.36;73.51;99420.69;5052807;28;20192;-90
2023/01/14 07:19:03;;;;;;;49.43;13.33;;;;;;;10.43;73.62;99421.25;5054000;28;20178;-90
2023/01/14 07:21:28;;;;;;;32.70;10.23;;;;;;;10.46;72.77;99428.97;5052720;28;20268;-91
2023/01/14 07:23:54;;;;;;;36.50;9.67;;;;;;;10.49;73.06;99428.81;5053857;28;20174;-90
2023/01/14 07:26:19;;;;;;;37.27;10.13;;;;;;;10.51;73.30;99426.16;5052629;28;20241;-90
2023/01/14 07:28:45;;;;;;;25.17;9.40;;;;;;;10.57;72.92;99425.81;5052645;28;20181;-90
2023/01/14 07:31:10;;;;;;;31.13;10.83;;;;;;;10.57;73.26;99425.81;5052576;28;20263;-89
2023/01/14 07:33:35;;;;;;;35.17;9.60;;;;;;;10.57;73.28;99436.31;5053461;28;20315;-90
2023/01/14 07:36:01;;;;;;;32.80;10.03;;;;;;;10.64;73.22;99428.06;5052382;28;20233;-90
2023/01/14 07:38:28;;;;;;;26.33;8.73;;;;;;;10.70;73.73;99427.78;5053371;28;20225;-90
2023/01/14 07:40:54;;;;;;;36.20;13.33;;;;;;;10.76;73.68;99431.88;5052462;28;20174;-90
2023/01/14 07:43:20;;;;;;;50.30;16.47;;;;;;;10.76;73.65;99431.88;5053311;28;20197;-90
2023/01/14 07:45:46;;;;;;;60.03;21.57;;;;;;;10.69;73.88;99443.59;5052387;28;20607;-90
2023/01/14 07:48:12;;;;;;;31.87;9.97;;;;;;;10.61;74.45;99430.00;5052362;28;20208;-90
2023/01/14 07:50:37;;;;;;;39.00;11.27;;;;;;;10.69;74.66;99436.56;5052440;28;20623;-91
2023/01/14 07:53:03;;;;;;;32.77;9.77;;;;;;;10.77;74.58;99439.66;5052691;28;20245;-90
2023/01/14 07:55:28;;;;;;;29.40;8.90;;;;;;;10.78;74.97;99441.38;5052238;28;20298;-90
2023/01/14 07:57:54;;;;;;;17.50;7.50;;;;;;;10.91;74.00;99446.88;5051845;28;20253;-90
2023/01/14 08:00:20;;;;;;;15.80;6.93;;;;;;;10.94;73.25;99431.00;5052195;28;20183;-90
2023/01/14 08:02:46;;;;;;;18.30;7.10;;;;;;;10.97;73.19;99430.84;5052206;28;20169;-90
2023/01/14 08:05:11;;;;;;;30.13;10.37;;;;;;;11.03;72.92;99434.00;5053025;28;20175;-90
2023/01/14 08:07:37;;;;;;;27.93;9.33;;;;;;;11.10;73.03;99431.94;5052256;28;20187;-90
2023/01/14 08:10:04;;;;;;;19.93;7.83;;;;;;;11.17;73.04;99432.47;5052132;28;20589;-90
2023/01/14 08:12:32;;;;;;;24.40;9.50;;;;;;;11.17;73.11;99438.56;5052348;28;20265;-90
2023/01/14 08:14:58;;;;;;;27.07;9.93;;;;;;;11.22;73.10;99436.56;5052995;28;20196;-90
2023/01/14 08:17:23;;;;;;;31.53;10.83;;;;;;;11.26;73.11;99443.38;5052280;28;20177;-90
2023/01/14 08:19:49;;;;;;;30.60;10.20;;;;;;;11.25;72.84;99451.28;5052433;28;20261;-90
2023/01/14 08:22:14;;;;;;;21.83;9.67;;;;;;;11.32;72.21;99453.53;5052431;28;20211;-90
2023/01/14 08:24:40;;;;;;;31.50;12.30;;;;;;;11.38;71.73;99453.22;5052941;28;20183;-90
2023/01/14 08:27:05;;;;;;;32.17;12.00;;;;;;;11.33;72.12;99450.00;5051956;28;20549;-90
2023/01/14 08:29:31;;;;;;;39.13;13.47;;;;;;;11.35;72.02;99452.53;5051925;28;20285;-90
2023/01/14 08:31:56;;;;;;;40.33;13.30;;;;;;;11.32;71.48;99450.91;5053206;28;20275;-90
2023/01/14 08:34:23;;;;;;;38.97;11.97;;;;;;;11.30;72.11;99454.53;5051899;28;20186;-90
2023/01/14 08:36:49;;;;;;;25.90;11.07;;;;;;;11.26;72.34;99455.63;5052230;28;20676;-90
2023/01/14 08:39:16;;;;;;;34.70;11.63;;;;;;;11.30;72.56;99455.38;5052713;28;20228;-90
2023/01/14 08:41:42;;;;;;;32.50;11.40;;;;;;;11.28;72.54;99459.88;5052735;28;20171;-90
2023/01/14 08:44:09;;;;;;;24.70;9.60;;;;;;;11.29;72.26;99464.19;5052756;28;20170;-90
2023/01/14 08:46:35;;;;;;;23.63;9.33;;;;;;;11.29;72.31;99464.19;5052801;28;20257;-90
2023/01/14 08:49:00;;;;;;;28.30;11.17;;;;;;;11.33;72.44;99459.63;5053233;28;20320;-90
2023/01/14 08:51:28;;;;;;;35.13;11.00;;;;;;;11.35;71.89;99463.88;5052121;28;20171;-90
2023/01/14 08:54:00;;;;;;;30.07;9.83;;;;;;;11.45;71.98;99459.84;5052057;28;20181;-90
2023/01/14 08:56:26;;;;;;;20.43;8.53;;;;;;;11.48;71.66;99458.84;5051674;28;20203;-90
2023/01/14 08:58:52;;;;;;;22.73;9.00;;;;;;;11.44;70.80;99449.44;5052333;28;20679;-90
2023/01/14 09:01:17;;;;;;;20.63;8.97;;;;;;;11.44;71.15;99457.31;5051702;28;20187;-90
2023/01/14 09:03:45;;;;;;;33.63;10.50;;;;;;;11.47;71.46;99463.28;5051537;28;20266;-90
2023/01/14 09:06:13;;;;;;;39.27;13.23;;;;;;;11.53;71.69;99456.88;5051590;28;20186;-90
2023/01/14 09:17:20;;;;;;;37.33;13.63;;;;;;;11.66;70.04;99443.00;5056666;28;20166;-90
2023/01/14 09:19:50;;;;;;;45.63;13.80;;;;;;;11.64;70.73;99436.97;5054995;28;20639;-90
2023/01/14 09:22:19;;;;;;;47.70;14.70;;;;;;;11.70;70.56;99438.47;5055182;28;20249;-90
2023/01/14 09:24:45;;;;;;;31.37;13.03;;;;;;;11.73;70.98;99430.44;5056220;28;20202;-90
2023/01/14 09:27:11;;;;;;;25.90;10.07;;;;;;;11.82;69.74;99434.38;5054976;28;20265;-91
2023/01/14 09:29:36;;;;;;;31.90;11.77;;;;;;;11.81;69.77;99437.91;5055096;28;20206;-90
2023/01/14 09:32:02;;;;;;;31.47;10.43;;;;;;;11.76;70.17;99430.28;5055714;28;20166;-90
2023/01/14 09:34:27;;;;;;;29.87;10.80;;;;;;;11.79;69.73;99437.16;5055466;28;20256;-91
2023/01/14 09:36:54;;;;;;;24.70;10.03;;;;;;;11.81;69.18;99425.63;5054656;28;20598;-90
2023/01/14 09:39:20;;;;;;;25.50;10.00;;;;;;;11.82;68.95;99427.31;5055465;28;20203;-90
2023/01/14 09:41:51;;;;;;;24.03;10.07;;;;;;;11.83;69.19;99422.91;5054506;28;20173;-89
2023/01/14 09:44:18;;;;;;;27.10;10.97;;;;;;;11.84;69.61;99419.38;5055950;28;20242;-89
2023/01/14 09:46:44;;;;;;;31.17;11.40;;;;;;;11.88;69.22;99423.53;5054474;28;20174;-90
2023/01/14 09:49:13;;;;;;;46.40;13.17;;;;;;;11.82;70.29;99422.06;5055318;28;20179;-90
2023/01/14 09:51:51;;;;;;;52.90;14.73;;;;;;;11.90;69.94;99419.03;5055661;28;20213;-90
2023/01/14 09:54:41;;;;;;;72.20;18.50;;;;;;;11.86;70.20;99414.88;5054517;28;20182;-90
2023/01/14 09:57:14;;;;;;;75.40;20.90;;;;;;;11.89;69.85;99414.72;5054290;28;20177;-90
2023/01/14 09:59:47;;;;;;;116.60;27.23;;;;;;;11.85;69.77;99410.53;5054265;28;20288;-91
2023/01/14 10:02:17;;;;;;;115.97;27.53;;;;;;;11.82;69.51;99405.47;5055170;28;20605;-91
2023/01/14 10:05:00;;;;;;;143.40;31.03;;;;;;;11.81;69.96;99409.03;5054626;28;20649;-91
2023/01/14 10:07:29;;;;;;;127.53;27.67;;;;;;;11.77;69.41;99415.34;5054986;28;20179;-90
2023/01/14 10:09:57;;;;;;;118.87;25.50;;;;;;;11.73;69.78;99406.81;5054053;28;20258;-90
2023/01/14 10:12:31;;;;;;;138.43;27.87;;;;;;;11.70;70.44;99412.22;5054992;28;20179;-90
2023/01/14 10:15:11;;;;;;;143.80;29.07;;;;;;;11.70;69.93;99399.94;5054000;28;20225;-90
2023/01/14 10:17:41;;;;;;;112.90;23.40;;;;;;;11.75;69.87;99404.09;5055693;28;20170;-90
2023/01/14 10:20:20;;;;;;;112.73;25.60;;;;;;;11.76;70.35;99395.28;5053800;28;20178;-90
2023/01/14 10:23:10;;;;;;;86.03;20.83;;;;;;;11.72;69.99;99399.84;5053509;28;20584;-90
2023/01/14 10:25:37;;;;;;;82.53;20.23;;;;;;;11.72;70.52;99394.59;5053833;28;20672;-91
2023/01/14 10:28:11;;;;;;;67.27;15.57;;;;;;;11.74;69.66;99391.91;5054499;28;20175;-90
2023/01/14 10:30:41;;;;;;;61.53;15.93;;;;;;;11.61;70.04;99387.25;5055015;28;20157;-91
2023/01/14 10:33:13;;;;;;;59.87;17.90;;;;;;;11.46;70.59;99387.22;5054638;28;20171;-90
2023/01/14 10:35:41;;;;;;;67.13;16.40;;;;;;;11.34;71.20;99378.22;5054581;28;20204;-90
2023/01/14 10:38:13;;;;;;;75.00;17.23;;;;;;;11.33;71.29;99381.75;5054400;28;20200;-91
2023/01/14 10:40:38;;;;;;;55.07;13.00;;;;;;;11.27;71.53;99381.25;5055020;28;20190;-90
2023/01/14 10:43:03;;;;;;;77.03;15.40;;;;;;;11.19;71.71;99373.72;5053561;28;20587;-91
2023/01/14 10:45:30;;;;;;;47.93;14.60;;;;;;;11.31;71.65;99372.25;5054592;28;20181;-90
2023/01/14 10:48:02;;;;;;;29.73;10.23;;;;;;;11.23;72.31;99372.66;5054248;28;20186;-90
2023/01/14 10:50:30;;;;;;;37.07;9.33;;;;;;;11.14;72.00;99370.50;5054917;28;20181;-90
2023/01/14 10:53:15;;;;;;;22.80;8.97;;;;;;;11.24;72.20;99371.72;5053233;28;20260;-90
2023/01/14 10:55:51;;;;;;;26.70;8.30;;;;;;;11.26;72.12;99359.41;5054383;28;20640;-90
2023/01/14 10:58:26;;;;;;;35.53;9.27;;;;;;;11.18;72.80;99365.94;5054132;28;20176;-90
2023/01/14 11:01:00;;;;;;;32.83;9.47;;;;;;;11.16;72.87;99357.31;5053179;28;20205;-90
2023/01/14 11:03:29;;;;;;;22.97;7.83;;;;;;;11.24;72.49;99360.41;5054040;28;20176;-91
2023/01/14 11:06:17;;;;;;;20.40;8.13;;;;;;;11.27;72.50;99360.25;5054553;28;20185;-90
2023/01/14 11:08:48;;;;;;;25.13;9.57;;;;;;;11.16;72.26;99358.19;5054419;28;20189;-90
2023/01/14 11:11:17;;;;;;;26.43;10.23;;;;;;;11.08;72.62;99357.72;5054702;28;20170;-90
2023/01/14 11:13:44;;;;;;;30.23;9.80;;;;;;;11.11;73.29;99354.91;5053190;28;20181;-90
2023/01/14 11:16:31;;;;;;;34.43;9.40;;;;;;;11.22;73.56;99342.09;5052854;28;20236;-90
2023/01/14 11:19:15;;;;;;;28.33;9.93;;;;;;;11.24;73.43;99352.53;5054312;28;20158;-90
2023/01/14 11:21:46;;;;;;;24.43;8.40;;;;;;;11.21;73.56;99350.06;5052732;28;20273;-91
2023/01/14 11:24:18;;;;;;;24.60;8.30;;;;;;;11.25;73.46;99344.56;5053745;28;20166;-90
2023/01/14 11:26:44;;;;;;;15.37;6.37;;;;;;;11.07;73.86;99350.75;5054084;28;20177;-91
2023/01/14 11:29:28;;;;;;;18.93;7.03;;;;;;;11.04;74.27;99345.66;5053783;28;20170;-91
2023/01/14 11:31:57;;;;;;;16.27;6.90;;;;;;;11.06;74.23;99352.53;5053187;28;20535;-90
2023/01/14 11:34:38;;;;;;;19.03;6.57;;;;;;;11.14;73.58;99343.44;5052883;28;20608;-90
2023/01/14 11:37:05;;;;;;;14.40;6.43;;;;;;;11.06;73.87;99346.44;5053868;28;20162;-91
2023/01/14 11:39:33;;;;;;;13.87;5.80;;;;;;;10.93;74.11;99342.72;5053409;28;20197;-90
2023/01/14 11:42:02;;;;;;;13.47;6.27;;;;;;;10.94;74.07;99340.06;5052422;28;20213;-90
2023/01/14 11:44:29;;;;;;;22.47;7.93;;;;;;;11.03;74.01;99338.75;5053782;28;20251;-91
2023/01/14 11:47:10;;;;;;;13.20;7.03;;;;;;;11.01;74.58;99343.19;5053283;28;20187;-91
2023/01/14 11:49:35;;;;;;;15.27;7.00;;;;;;;11.03;74.32;99342.19;5052536;28;20177;-90
2023/01/14 11:52:03;;;;;;;27.57;12.03;;;;;;;10.97;74.60;99346.91;5052569;28;20193;-90
2023/01/14 11:54:40;;;;;;;19.47;8.63;;;;;;;11.06;74.36;99342.03;5053193;28;20261;-90
2023/01/14 11:57:15;;;;;;;18.67;8.50;;;;;;;11.06;74.78;99342.03;5052365;28;20624;-90
2023/01/14 11:59:41;;;;;;;25.00;10.33;;;;;;;10.96;74.18;99338.19;5052822;28;20214;-88
2023/01/14 12:02:18;;;;;;;32.33;11.73;;;;;;;10.95;74.53;99348.78;5052283;28;20635;-90